KBFL/BFL METAR and TAF weather

Enter ICAO airport designator
Station Type Date Time Source
KBFL METAR 2019/08/19 06:54 UTC NOAA

KBFL 190654Z AUTO 36003KT 10SM CLR 25/01 A2986 RMK AO2 SLP105 T02500006


Station Type Date Time Source
KBFL Decoded METAR 2019/08/19 06:54 UTC NOAA

Station name not available
Aug 19, 2019 - 02:54 AM EDT / 2019.08.19 0654 UTC
Wind: from the N (360 degrees) at 3 MPH (3 KT):0
Visibility: 10 mile(s):0
Sky conditions: clear
Temperature: 77.0 F (25.0 C)
Dew Point: 33.1 F (0.6 C)
Relative Humidity: 20%
Pressure (altimeter): 29.86 in. Hg (1011 hPa)
ob: KBFL 190654Z AUTO 36003KT 10SM CLR 25/01 A2986 RMK AO2 SLP105 T02500006
cycle: 7

Station Type Date Time Source
KBFL TAF 2019/08/19 06:21 UTC NOAA

TAF KBFL 190520Z 1906/2006 VRB04KT P6SM SKC
FM192100 30011KT P6SM SKC

Example: see airport list